createdAt,value
2023-02-03T00:02:47.364Z,0
2023-02-03T00:07:47.213Z,0
2023-02-03T00:12:47.191Z,0
2023-02-03T00:17:47.201Z,0
2023-02-03T00:22:47.168Z,0
2023-02-03T00:27:47.314Z,0
2023-02-03T00:32:47.182Z,0
2023-02-03T00:37:47.178Z,0
2023-02-03T00:42:47.194Z,0
2023-02-03T00:47:47.176Z,0
2023-02-03T00:52:47.191Z,0
2023-02-03T00:57:47.176Z,0
2023-02-03T01:02:47.156Z,0
2023-02-03T01:07:47.156Z,0
2023-02-03T01:12:47.151Z,0
2023-02-03T01:17:47.171Z,0
2023-02-03T01:22:47.181Z,0
2023-02-03T01:27:47.219Z,0
2023-02-03T01:32:47.132Z,0
2023-02-03T01:37:47.140Z,0
2023-02-03T01:42:47.137Z,0
2023-02-03T01:47:47.167Z,0
2023-02-03T01:52:47.144Z,0
2023-02-03T01:57:47.142Z,0
2023-02-03T02:02:47.178Z,0
2023-02-03T02:07:47.154Z,0
2023-02-03T02:12:47.134Z,0
2023-02-03T02:17:47.186Z,0
2023-02-03T02:22:47.139Z,0
2023-02-03T02:27:47.276Z,0
2023-02-03T02:32:47.144Z,0
2023-02-03T02:37:47.125Z,0
2023-02-03T02:42:47.090Z,0
2023-02-03T02:47:47.146Z,0
2023-02-03T02:52:47.106Z,0
2023-02-03T02:57:47.130Z,0
2023-02-03T03:02:47.079Z,0
2023-02-03T03:07:47.121Z,0
2023-02-03T03:12:47.112Z,0
2023-02-03T03:17:47.091Z,0
2023-02-03T03:22:47.120Z,0
2023-02-03T03:27:47.164Z,0
2023-02-03T03:32:47.075Z,0
2023-02-03T03:37:47.085Z,0
2023-02-03T03:42:47.074Z,0
2023-02-03T03:47:47.099Z,0
2023-02-03T03:52:47.067Z,0
2023-02-03T03:57:47.058Z,0
2023-02-03T04:02:47.224Z,0
2023-02-03T04:07:47.111Z,0
2023-02-03T04:12:47.070Z,0
2023-02-03T04:17:47.064Z,0
2023-02-03T04:22:47.075Z,0
2023-02-03T04:27:47.201Z,0
2023-02-03T04:32:47.043Z,0
2023-02-03T04:37:47.043Z,0
2023-02-03T04:42:47.058Z,0
2023-02-03T04:47:47.083Z,0
2023-02-03T04:52:47.077Z,0
2023-02-03T04:57:47.061Z,0
2023-02-03T05:02:47.113Z,0
2023-02-03T05:07:47.043Z,0
2023-02-03T05:12:47.020Z,0
2023-02-03T05:17:47.036Z,0
2023-02-03T05:22:47.059Z,0
2023-02-03T05:27:47.047Z,0
2023-02-03T05:32:47.033Z,0
2023-02-03T05:37:47.017Z,0
2023-02-03T05:42:47.012Z,0
2023-02-03T05:47:47.029Z,0
2023-02-03T05:52:47.024Z,0
2023-02-03T05:57:47.023Z,0
2023-02-03T06:02:46.988Z,0
2023-02-03T06:07:47.045Z,0
2023-02-03T06:12:47.010Z,0
2023-02-03T06:17:47.032Z,0
2023-02-03T06:22:47.016Z,0
2023-02-03T06:27:47.163Z,0
2023-02-03T06:32:46.983Z,0
2023-02-03T06:37:46.970Z,0
2023-02-03T06:42:47.001Z,0
2023-02-03T06:47:47.049Z,0
2023-02-03T06:52:47.000Z,0
2023-02-03T06:57:47.058Z,0
2023-02-03T07:02:47.062Z,0
2023-02-03T07:07:47.019Z,0
2023-02-03T07:12:46.993Z,0
2023-02-03T07:17:46.993Z,0
2023-02-03T07:22:46.965Z,0
2023-02-03T07:27:47.030Z,0
2023-02-03T07:32:46.976Z,0
2023-02-03T07:37:46.993Z,0
2023-02-03T07:42:46.940Z,0
2023-02-03T07:47:46.999Z,0
2023-02-03T07:52:46.952Z,2
2023-02-03T07:57:46.952Z,1
2023-02-03T08:02:46.978Z,2
2023-02-03T08:07:46.956Z,4
2023-02-03T08:12:46.974Z,2
2023-02-03T08:17:46.964Z,2
2023-02-03T08:22:46.931Z,3
2023-02-03T08:27:47.027Z,2
2023-02-03T08:32:46.941Z,5
2023-02-03T08:37:46.951Z,2
2023-02-03T08:42:46.997Z,5
2023-02-03T08:47:46.961Z,7
2023-02-03T08:52:46.975Z,14
2023-02-03T08:57:46.935Z,15
2023-02-03T09:02:46.940Z,7
2023-02-03T09:07:46.961Z,15
2023-02-03T09:12:46.915Z,11
2023-02-03T09:17:46.930Z,13
2023-02-03T09:22:46.909Z,12
2023-02-03T09:27:46.993Z,15
2023-02-03T09:32:46.949Z,11
2023-02-03T09:37:46.911Z,14
2023-02-03T09:42:46.901Z,15
2023-02-03T09:47:46.917Z,11
2023-02-03T09:52:46.899Z,7
2023-02-03T09:57:46.900Z,6
2023-02-03T10:02:47.009Z,17
2023-02-03T10:07:46.945Z,11
2023-02-03T10:12:46.895Z,13
2023-02-03T10:17:46.920Z,11
2023-02-03T10:22:46.921Z,8
2023-02-03T10:27:47.053Z,8
2023-02-03T10:32:46.874Z,11
2023-02-03T10:37:46.935Z,12
2023-02-03T10:42:46.915Z,25
2023-02-03T10:47:46.911Z,22
2023-02-03T10:52:47.000Z,18
2023-02-03T10:57:46.908Z,13
2023-02-03T11:02:46.941Z,13
2023-02-03T11:07:46.930Z,45
2023-02-03T11:12:46.903Z,54
2023-02-03T11:17:46.890Z,57
2023-02-03T11:22:46.869Z,57
2023-02-03T11:27:46.952Z,57
2023-02-03T11:32:46.910Z,71
2023-02-03T11:37:46.873Z,102
2023-02-03T11:42:46.859Z,174
2023-02-03T11:47:46.887Z,189
2023-02-03T11:52:46.890Z,160
2023-02-03T11:57:46.861Z,179
2023-02-03T12:02:46.915Z,200
2023-02-03T12:07:46.908Z,267
2023-02-03T12:12:46.872Z,216
2023-02-03T12:17:46.905Z,98
2023-02-03T12:22:46.850Z,101
2023-02-03T12:27:46.940Z,223
2023-02-03T12:32:46.909Z,184
2023-02-03T12:37:46.876Z,142
2023-02-03T12:42:46.879Z,139
2023-02-03T12:47:46.875Z,100
2023-02-03T12:52:46.869Z,70
2023-02-03T12:57:46.867Z,323
2023-02-03T13:02:46.860Z,224
2023-02-03T13:07:46.869Z,134
2023-02-03T13:12:46.870Z,90
2023-02-03T13:17:46.846Z,53
2023-02-03T13:22:46.822Z,71
2023-02-03T13:27:46.877Z,123
2023-02-03T13:32:46.864Z,125
2023-02-03T13:37:46.836Z,140
2023-02-03T13:42:46.853Z,107
2023-02-03T13:47:46.847Z,101
2023-02-03T13:52:46.842Z,80
2023-02-03T13:57:46.849Z,82
2023-02-03T14:02:46.816Z,76
2023-02-03T14:07:46.855Z,101
2023-02-03T14:12:46.865Z,96
2023-02-03T14:17:46.866Z,145
2023-02-03T14:22:46.896Z,75
2023-02-03T14:27:46.858Z,120
2023-02-03T14:32:46.846Z,125
2023-02-03T14:37:46.830Z,75
2023-02-03T14:42:46.843Z,57
2023-02-03T14:47:46.840Z,38
2023-02-03T14:52:46.832Z,23
2023-02-03T14:57:46.833Z,36
2023-02-03T15:02:46.832Z,35
2023-02-03T15:07:46.808Z,33
2023-02-03T15:12:46.795Z,26
2023-02-03T15:17:46.839Z,17
2023-02-03T15:22:46.805Z,14
2023-02-03T15:27:46.936Z,11
2023-02-03T15:32:46.970Z,10
2023-02-03T15:37:46.815Z,19
2023-02-03T15:42:46.794Z,6
2023-02-03T15:47:46.848Z,4
2023-02-03T15:52:46.776Z,2
2023-02-03T15:57:46.810Z,1
2023-02-03T16:02:46.819Z,0
2023-02-03T16:07:46.829Z,0
2023-02-03T16:12:46.793Z,0
2023-02-03T16:17:46.778Z,0
2023-02-03T16:22:46.816Z,0
2023-02-03T16:27:46.861Z,0
2023-02-03T16:32:46.811Z,0
2023-02-03T16:37:46.792Z,0
2023-02-03T16:42:46.777Z,0
2023-02-03T16:47:46.850Z,0
2023-02-03T16:52:46.896Z,0
2023-02-03T16:57:46.786Z,0
2023-02-03T17:02:46.781Z,0
2023-02-03T17:07:46.942Z,0
2023-02-03T17:12:46.790Z,0
2023-02-03T17:17:46.761Z,0
2023-02-03T17:22:46.744Z,0
2023-02-03T17:27:46.792Z,0
2023-02-03T17:32:46.763Z,0
2023-02-03T17:37:46.747Z,0
2023-02-03T17:57:46.722Z,0
2023-02-03T18:02:46.700Z,0
2023-02-03T18:12:46.754Z,0
2023-02-03T18:17:46.721Z,0
2023-02-03T18:22:46.699Z,0
2023-02-03T18:27:46.759Z,0
2023-02-03T18:32:46.698Z,0
2023-02-03T18:37:46.665Z,0
2023-02-03T18:42:46.688Z,0
2023-02-03T18:47:46.710Z,0
2023-02-03T18:52:46.741Z,0
2023-02-03T18:57:46.646Z,0
2023-02-03T19:02:46.717Z,0
2023-02-03T19:07:46.665Z,0
2023-02-03T19:12:46.702Z,0
2023-02-03T19:17:46.692Z,0
2023-02-03T19:22:46.696Z,0
2023-02-03T19:27:46.792Z,0
2023-02-03T19:32:46.731Z,0
2023-02-03T19:37:46.701Z,0
2023-02-03T19:42:46.693Z,0
2023-02-03T19:47:46.706Z,0
2023-02-03T19:52:46.716Z,0
2023-02-03T19:57:46.709Z,0
2023-02-03T20:02:46.724Z,0
2023-02-03T20:07:46.689Z,0
2023-02-03T20:12:46.687Z,0
2023-02-03T20:17:46.656Z,0
2023-02-03T20:22:46.691Z,0
2023-02-03T20:27:46.711Z,0
2023-02-03T20:32:46.679Z,0
2023-02-03T20:37:46.682Z,0
2023-02-03T20:42:46.671Z,0
2023-02-03T20:47:46.638Z,0
2023-02-03T20:52:46.716Z,0
2023-02-03T20:57:46.685Z,0
2023-02-03T21:02:46.686Z,0
2023-02-03T21:07:46.643Z,0
2023-02-03T21:12:46.712Z,0
2023-02-03T21:17:46.684Z,0
2023-02-03T21:22:46.631Z,0
2023-02-03T21:27:46.671Z,0
2023-02-03T21:32:46.725Z,0
2023-02-03T21:37:46.665Z,0
2023-02-03T21:42:46.648Z,0
2023-02-03T21:47:46.638Z,0
2023-02-03T21:52:46.648Z,0
2023-02-03T21:57:46.631Z,0
2023-02-03T22:02:46.692Z,0
2023-02-03T22:07:46.627Z,0
2023-02-03T22:12:46.632Z,0
2023-02-03T22:17:46.602Z,0
2023-02-03T22:22:46.648Z,0
2023-02-03T22:27:46.672Z,0
2023-02-03T22:32:46.620Z,0
2023-02-03T22:37:46.644Z,0
2023-02-03T22:42:46.615Z,0
2023-02-03T22:47:46.590Z,0
2023-02-03T22:52:46.602Z,0
2023-02-03T22:57:46.592Z,0
2023-02-03T23:02:46.585Z,0
2023-02-03T23:07:46.621Z,0
2023-02-03T23:12:46.595Z,0
2023-02-03T23:17:46.587Z,0
2023-02-03T23:22:46.583Z,0
2023-02-03T23:27:46.668Z,0
2023-02-03T23:32:46.600Z,0
2023-02-03T23:37:46.587Z,0
2023-02-03T23:42:46.625Z,0
2023-02-03T23:47:46.589Z,0
2023-02-03T23:52:46.633Z,0
2023-02-03T23:57:46.591Z,0
